sensor_id;sensor_type;location;lat;lon;timestamp;P1;durP1;ratioP1;P2;durP2;ratioP2
62024;SDS011;47978;49.118;12.146;2024-02-15T08:09:28;33.33;;;12.38;;
62024;SDS011;47978;49.118;12.146;2024-02-15T08:13:30;703.60;;;248.30;;
62024;SDS011;47978;49.118;12.146;2024-02-15T08:17:32;368.23;;;119.93;;
62024;SDS011;47978;49.118;12.146;2024-02-15T08:21:33;408.83;;;138.60;;
62024;SDS011;47978;49.118;12.146;2024-02-15T08:25:38;503.20;;;178.95;;
62024;SDS011;47978;49.118;12.146;2024-02-15T08:41:45;74.47;;;31.02;;
62024;SDS011;47978;49.118;12.146;2024-02-15T08:45:47;12.27;;;8.38;;
62024;SDS011;47978;49.118;12.146;2024-02-15T08:49:48;14.30;;;8.93;;
62024;SDS011;47978;49.118;12.146;2024-02-15T08:53:50;16.88;;;9.77;;
62024;SDS011;47978;49.118;12.146;2024-02-15T08:57:53;18.15;;;10.13;;
62024;SDS011;47978;49.118;12.146;2024-02-15T09:01:55;21.52;;;10.05;;
62024;SDS011;47978;49.118;12.146;2024-02-15T09:05:56;15.30;;;9.57;;
62024;SDS011;47978;49.118;12.146;2024-02-15T09:09:58;13.02;;;9.15;;
62024;SDS011;47978;49.118;12.146;2024-02-15T09:14:01;13.68;;;8.73;;
62024;SDS011;47978;49.118;12.146;2024-02-15T09:18:03;15.55;;;8.80;;
62024;SDS011;47978;49.118;12.146;2024-02-15T09:22:05;55.97;;;24.93;;
62024;SDS011;47978;49.118;12.146;2024-02-15T09:26:06;25.38;;;12.23;;
62024;SDS011;47978;49.118;12.146;2024-02-15T09:30:10;213.98;;;62.00;;
62024;SDS011;47978;49.118;12.146;2024-02-15T09:34:12;51.47;;;19.08;;
62024;SDS011;47978;49.118;12.146;2024-02-15T09:38:14;24.98;;;12.73;;
62024;SDS011;47978;49.118;12.146;2024-02-15T09:42:16;28.67;;;14.68;;
62024;SDS011;47978;49.118;12.146;2024-02-15T09:46:19;16.73;;;9.68;;
62024;SDS011;47978;49.118;12.146;2024-02-15T09:50:20;11.68;;;6.82;;
62024;SDS011;47978;49.118;12.146;2024-02-15T09:54:25;9.98;;;6.05;;
62024;SDS011;47978;49.118;12.146;2024-02-15T09:58:27;8.05;;;5.30;;
62024;SDS011;47978;49.118;12.146;2024-02-15T10:02:33;9.85;;;6.00;;
62024;SDS011;47978;49.118;12.146;2024-02-15T10:06:36;12.95;;;5.78;;
62024;SDS011;47978;49.118;12.146;2024-02-15T10:10:38;11.68;;;7.60;;
62024;SDS011;47978;49.118;12.146;2024-02-15T10:14:44;14.45;;;7.07;;
62024;SDS011;47978;49.118;12.146;2024-02-15T10:18:51;9.65;;;6.30;;
62024;SDS011;47978;49.118;12.146;2024-02-15T10:22:53;11.60;;;6.60;;
62024;SDS011;47978;49.118;12.146;2024-02-15T10:27:09;11.98;;;6.70;;
62024;SDS011;47978;49.118;12.146;2024-02-15T10:31:11;13.65;;;7.10;;
62024;SDS011;47978;49.118;12.146;2024-02-15T10:35:19;11.65;;;6.28;;
62024;SDS011;47978;49.118;12.146;2024-02-15T10:39:22;13.23;;;6.30;;
62024;SDS011;47978;49.118;12.146;2024-02-15T10:43:24;12.60;;;6.30;;
62024;SDS011;47978;49.118;12.146;2024-02-15T10:47:25;10.57;;;6.18;;
62024;SDS011;47978;49.118;12.146;2024-02-15T10:55:35;13.10;;;6.10;;
62024;SDS011;47978;49.118;12.146;2024-02-15T10:59:42;9.00;;;5.95;;
62024;SDS011;47978;49.118;12.146;2024-02-15T11:03:59;14.00;;;5.80;;
62024;SDS011;47978;49.118;12.146;2024-02-15T11:08:03;12.13;;;5.45;;
62024;SDS011;47978;49.118;12.146;2024-02-15T11:12:06;8.45;;;5.28;;
62024;SDS011;47978;49.118;12.146;2024-02-15T11:16:08;8.73;;;5.13;;
62024;SDS011;47978;49.118;12.146;2024-02-15T11:20:11;8.48;;;5.30;;
62024;SDS011;47978;49.118;12.146;2024-02-15T11:24:49;10.32;;;5.25;;
62024;SDS011;47978;49.118;12.146;2024-02-15T11:28:51;9.27;;;5.85;;
62024;SDS011;47978;49.118;12.146;2024-02-15T11:32:53;16.60;;;7.50;;
62024;SDS011;47978;49.118;12.146;2024-02-15T11:36:55;11.73;;;6.05;;
62024;SDS011;47978;49.118;12.146;2024-02-15T11:41:01;20.38;;;8.32;;
62024;SDS011;47978;49.118;12.146;2024-02-15T11:45:06;7.65;;;4.47;;
62024;SDS011;47978;49.118;12.146;2024-02-15T11:49:14;9.50;;;5.10;;
62024;SDS011;47978;49.118;12.146;2024-02-15T11:53:16;10.45;;;5.55;;
62024;SDS011;47978;49.118;12.146;2024-02-15T11:57:19;7.82;;;4.57;;
62024;SDS011;47978;49.118;12.146;2024-02-15T12:01:20;9.27;;;4.70;;
62024;SDS011;47978;49.118;12.146;2024-02-15T12:05:22;13.90;;;6.95;;
62024;SDS011;47978;49.118;12.146;2024-02-15T12:09:24;8.70;;;5.75;;
62024;SDS011;47978;49.118;12.146;2024-02-15T12:13:27;11.45;;;4.82;;
62024;SDS011;47978;49.118;12.146;2024-02-15T12:17:28;10.15;;;4.57;;
62024;SDS011;47978;49.118;12.146;2024-02-15T12:21:30;7.65;;;4.05;;
62024;SDS011;47978;49.118;12.146;2024-02-15T12:25:32;7.55;;;4.50;;
62024;SDS011;47978;49.118;12.146;2024-02-15T12:29:36;7.13;;;4.13;;
62024;SDS011;47978;49.118;12.146;2024-02-15T12:37:39;8.73;;;4.10;;
62024;SDS011;47978;49.118;12.146;2024-02-15T12:41:41;9.02;;;3.75;;
62024;SDS011;47978;49.118;12.146;2024-02-15T12:45:49;5.95;;;3.58;;
62024;SDS011;47978;49.118;12.146;2024-02-15T12:49:51;4.95;;;2.88;;
62024;SDS011;47978;49.118;12.146;2024-02-15T12:53:52;5.63;;;3.08;;
62024;SDS011;47978;49.118;12.146;2024-02-15T12:57:54;6.22;;;3.45;;
62024;SDS011;47978;49.118;12.146;2024-02-15T13:01:57;9.23;;;3.42;;
62024;SDS011;47978;49.118;12.146;2024-02-15T13:05:59;4.80;;;3.00;;
62024;SDS011;47978;49.118;12.146;2024-02-15T13:10:00;5.47;;;3.33;;
62024;SDS011;47978;49.118;12.146;2024-02-15T13:14:02;6.80;;;2.90;;
62024;SDS011;47978;49.118;12.146;2024-02-15T13:18:05;5.78;;;3.53;;
62024;SDS011;47978;49.118;12.146;2024-02-15T13:22:07;10.60;;;3.40;;
62024;SDS011;47978;49.118;12.146;2024-02-15T13:26:09;6.80;;;3.75;;
62024;SDS011;47978;49.118;12.146;2024-02-15T13:30:11;4.95;;;2.85;;
62024;SDS011;47978;49.118;12.146;2024-02-15T13:34:14;7.05;;;3.13;;
62024;SDS011;47978;49.118;12.146;2024-02-15T13:42:17;5.10;;;3.20;;
62024;SDS011;47978;49.118;12.146;2024-02-15T13:46:18;7.93;;;4.55;;
62024;SDS011;47978;49.118;12.146;2024-02-15T13:50:23;4.85;;;3.05;;
62024;SDS011;47978;49.118;12.146;2024-02-15T13:54:25;6.45;;;3.30;;
62024;SDS011;47978;49.118;12.146;2024-02-15T13:58:26;10.20;;;2.92;;
62024;SDS011;47978;49.118;12.146;2024-02-15T14:02:28;8.50;;;3.65;;
62024;SDS011;47978;49.118;12.146;2024-02-15T14:06:31;7.38;;;3.45;;
62024;SDS011;47978;49.118;12.146;2024-02-15T14:10:33;3.70;;;2.45;;
62024;SDS011;47978;49.118;12.146;2024-02-15T14:14:35;4.10;;;2.70;;
62024;SDS011;47978;49.118;12.146;2024-02-15T14:18:36;6.22;;;2.92;;
62024;SDS011;47978;49.118;12.146;2024-02-15T14:22:39;10.32;;;3.58;;
62024;SDS011;47978;49.118;12.146;2024-02-15T14:30:43;5.32;;;2.95;;
62024;SDS011;47978;49.118;12.146;2024-02-15T14:34:44;5.85;;;3.15;;
62024;SDS011;47978;49.118;12.146;2024-02-15T14:38:47;5.07;;;3.10;;
62024;SDS011;47978;49.118;12.146;2024-02-15T14:42:49;5.85;;;2.70;;
62024;SDS011;47978;49.118;12.146;2024-02-15T14:46:57;4.80;;;2.53;;
62024;SDS011;47978;49.118;12.146;2024-02-15T14:50:59;7.35;;;2.90;;
62024;SDS011;47978;49.118;12.146;2024-02-15T14:55:02;7.17;;;2.70;;
62024;SDS011;47978;49.118;12.146;2024-02-15T14:59:07;4.97;;;2.53;;
62024;SDS011;47978;49.118;12.146;2024-02-15T15:03:09;6.63;;;2.90;;
62024;SDS011;47978;49.118;12.146;2024-02-15T15:07:11;7.35;;;2.83;;
62024;SDS011;47978;49.118;12.146;2024-02-15T15:11:14;4.45;;;2.65;;
62024;SDS011;47978;49.118;12.146;2024-02-15T15:19:17;5.97;;;2.70;;
62024;SDS011;47978;49.118;12.146;2024-02-15T15:23:19;6.63;;;3.13;;
62024;SDS011;47978;49.118;12.146;2024-02-15T15:27:22;5.45;;;3.03;;
62024;SDS011;47978;49.118;12.146;2024-02-15T15:35:25;4.82;;;2.80;;
62024;SDS011;47978;49.118;12.146;2024-02-15T15:39:29;4.97;;;2.70;;
62024;SDS011;47978;49.118;12.146;2024-02-15T15:43:32;4.60;;;2.30;;
62024;SDS011;47978;49.118;12.146;2024-02-15T15:47:34;4.50;;;2.42;;
62024;SDS011;47978;49.118;12.146;2024-02-15T15:51:36;6.18;;;2.78;;
62024;SDS011;47978;49.118;12.146;2024-02-15T15:55:42;6.63;;;2.08;;
62024;SDS011;47978;49.118;12.146;2024-02-15T15:59:45;3.85;;;2.28;;
62024;SDS011;47978;49.118;12.146;2024-02-15T16:03:47;3.97;;;2.50;;
62024;SDS011;47978;49.118;12.146;2024-02-15T16:07:49;4.65;;;2.50;;
62024;SDS011;47978;49.118;12.146;2024-02-15T16:11:51;7.55;;;2.58;;
62024;SDS011;47978;49.118;12.146;2024-02-15T16:15:54;4.75;;;2.33;;
62024;SDS011;47978;49.118;12.146;2024-02-15T16:19:56;6.35;;;2.45;;
62024;SDS011;47978;49.118;12.146;2024-02-15T16:23:58;8.40;;;2.30;;
62024;SDS011;47978;49.118;12.146;2024-02-15T16:27:59;5.13;;;2.65;;
62024;SDS011;47978;49.118;12.146;2024-02-15T16:32:02;5.20;;;2.72;;
62024;SDS011;47978;49.118;12.146;2024-02-15T16:36:04;3.95;;;2.38;;
62024;SDS011;47978;49.118;12.146;2024-02-15T16:40:07;7.95;;;2.90;;
62024;SDS011;47978;49.118;12.146;2024-02-15T16:44:09;4.60;;;2.53;;
62024;SDS011;47978;49.118;12.146;2024-02-15T16:48:12;8.43;;;2.78;;
62024;SDS011;47978;49.118;12.146;2024-02-15T16:56:15;11.80;;;7.10;;
62024;SDS011;47978;49.118;12.146;2024-02-15T17:00:17;26.63;;;18.50;;
62024;SDS011;47978;49.118;12.146;2024-02-15T17:04:20;25.15;;;15.95;;
62024;SDS011;47978;49.118;12.146;2024-02-15T17:08:21;11.80;;;7.00;;
62024;SDS011;47978;49.118;12.146;2024-02-15T17:12:23;7.88;;;5.13;;
62024;SDS011;47978;49.118;12.146;2024-02-15T17:16:25;6.47;;;3.75;;
62024;SDS011;47978;49.118;12.146;2024-02-15T17:20:27;15.43;;;9.27;;
62024;SDS011;47978;49.118;12.146;2024-02-15T17:24:29;19.13;;;14.82;;
62024;SDS011;47978;49.118;12.146;2024-02-15T17:28:31;14.18;;;9.45;;
62024;SDS011;47978;49.118;12.146;2024-02-15T17:32:32;35.63;;;22.38;;
62024;SDS011;47978;49.118;12.146;2024-02-15T17:36:35;43.30;;;25.45;;
62024;SDS011;47978;49.118;12.146;2024-02-15T17:40:37;28.33;;;15.02;;
62024;SDS011;47978;49.118;12.146;2024-02-15T17:44:39;35.30;;;17.60;;
62024;SDS011;47978;49.118;12.146;2024-02-15T17:48:40;37.22;;;21.05;;
62024;SDS011;47978;49.118;12.146;2024-02-15T17:52:44;34.78;;;13.77;;
62024;SDS011;47978;49.118;12.146;2024-02-15T17:56:46;28.10;;;13.48;;
62024;SDS011;47978;49.118;12.146;2024-02-15T18:00:48;80.50;;;31.25;;
62024;SDS011;47978;49.118;12.146;2024-02-15T18:04:49;131.73;;;43.97;;
62024;SDS011;47978;49.118;12.146;2024-02-15T18:08:52;26.35;;;9.40;;
62024;SDS011;47978;49.118;12.146;2024-02-15T18:12:54;30.85;;;14.18;;
62024;SDS011;47978;49.118;12.146;2024-02-15T18:16:56;26.92;;;11.10;;
62024;SDS011;47978;49.118;12.146;2024-02-15T18:20:57;18.70;;;8.23;;
62024;SDS011;47978;49.118;12.146;2024-02-15T18:25:00;14.80;;;7.10;;
62024;SDS011;47978;49.118;12.146;2024-02-15T18:29:02;16.92;;;6.93;;
62024;SDS011;47978;49.118;12.146;2024-02-15T18:33:04;32.15;;;14.38;;
62024;SDS011;47978;49.118;12.146;2024-02-15T18:37:05;20.23;;;8.02;;
62024;SDS011;47978;49.118;12.146;2024-02-15T18:41:08;21.25;;;13.00;;
62024;SDS011;47978;49.118;12.146;2024-02-15T18:45:10;15.65;;;8.48;;
62024;SDS011;47978;49.118;12.146;2024-02-15T18:49:11;13.15;;;7.07;;
62024;SDS011;47978;49.118;12.146;2024-02-15T18:53:31;9.02;;;4.20;;
62024;SDS011;47978;49.118;12.146;2024-02-15T18:57:34;7.60;;;5.20;;
62024;SDS011;47978;49.118;12.146;2024-02-15T19:01:36;22.80;;;11.23;;
62024;SDS011;47978;49.118;12.146;2024-02-15T19:05:37;25.15;;;13.48;;
62024;SDS011;47978;49.118;12.146;2024-02-15T19:09:40;14.85;;;8.15;;
62024;SDS011;47978;49.118;12.146;2024-02-15T19:13:43;8.35;;;4.78;;
62024;SDS011;47978;49.118;12.146;2024-02-15T19:17:44;7.32;;;3.75;;
62024;SDS011;47978;49.118;12.146;2024-02-15T19:21:46;13.73;;;5.63;;
62024;SDS011;47978;49.118;12.146;2024-02-15T19:25:48;6.80;;;3.33;;
62024;SDS011;47978;49.118;12.146;2024-02-15T19:29:51;10.30;;;4.07;;
62024;SDS011;47978;49.118;12.146;2024-02-15T19:33:52;5.90;;;2.90;;
62024;SDS011;47978;49.118;12.146;2024-02-15T19:37:57;4.30;;;2.83;;
62024;SDS011;47978;49.118;12.146;2024-02-15T19:41:59;8.75;;;2.88;;
62024;SDS011;47978;49.118;12.146;2024-02-15T19:46:02;5.88;;;3.35;;
62024;SDS011;47978;49.118;12.146;2024-02-15T19:54:06;8.57;;;3.45;;
62024;SDS011;47978;49.118;12.146;2024-02-15T19:58:07;5.05;;;3.10;;
62024;SDS011;47978;49.118;12.146;2024-02-15T20:02:10;3.72;;;2.63;;
62024;SDS011;47978;49.118;12.146;2024-02-15T20:10:14;4.43;;;2.53;;
62024;SDS011;47978;49.118;12.146;2024-02-15T20:14:16;4.47;;;2.70;;
62024;SDS011;47978;49.118;12.146;2024-02-15T20:18:19;6.05;;;3.45;;
62024;SDS011;47978;49.118;12.146;2024-02-15T20:26:22;10.57;;;4.35;;
62024;SDS011;47978;49.118;12.146;2024-02-15T20:30:23;5.50;;;2.90;;
62024;SDS011;47978;49.118;12.146;2024-02-15T20:34:26;4.78;;;2.80;;
62024;SDS011;47978;49.118;12.146;2024-02-15T20:38:28;6.75;;;3.00;;
62024;SDS011;47978;49.118;12.146;2024-02-15T20:42:30;4.30;;;2.45;;
62024;SDS011;47978;49.118;12.146;2024-02-15T20:46:31;6.47;;;2.92;;
62024;SDS011;47978;49.118;12.146;2024-02-15T20:50:34;4.95;;;2.60;;
62024;SDS011;47978;49.118;12.146;2024-02-15T20:54:36;8.40;;;2.60;;
62024;SDS011;47978;49.118;12.146;2024-02-15T20:58:37;3.58;;;2.50;;
62024;SDS011;47978;49.118;12.146;2024-02-15T21:02:39;8.50;;;2.50;;
62024;SDS011;47978;49.118;12.146;2024-02-15T21:06:42;5.70;;;2.65;;
62024;SDS011;47978;49.118;12.146;2024-02-15T21:14:45;5.95;;;2.85;;
62024;SDS011;47978;49.118;12.146;2024-02-15T21:18:48;3.88;;;2.22;;
62024;SDS011;47978;49.118;12.146;2024-02-15T21:22:52;6.07;;;2.58;;
62024;SDS011;47978;49.118;12.146;2024-02-15T21:26:53;5.38;;;2.45;;
62024;SDS011;47978;49.118;12.146;2024-02-15T21:30:55;4.22;;;2.55;;
62024;SDS011;47978;49.118;12.146;2024-02-15T21:34:57;4.50;;;2.92;;
62024;SDS011;47978;49.118;12.146;2024-02-15T21:39:00;5.60;;;2.70;;
62024;SDS011;47978;49.118;12.146;2024-02-15T21:47:03;3.80;;;2.60;;
62024;SDS011;47978;49.118;12.146;2024-02-15T21:51:05;11.77;;;2.95;;
62024;SDS011;47978;49.118;12.146;2024-02-15T21:55:09;5.28;;;2.95;;
62024;SDS011;47978;49.118;12.146;2024-02-15T22:03:15;4.40;;;2.95;;
62024;SDS011;47978;49.118;12.146;2024-02-15T22:07:17;6.72;;;4.05;;
62024;SDS011;47978;49.118;12.146;2024-02-15T22:11:20;6.55;;;3.45;;
62024;SDS011;47978;49.118;12.146;2024-02-15T22:15:21;7.22;;;3.95;;
62024;SDS011;47978;49.118;12.146;2024-02-15T22:19:23;4.97;;;3.00;;
62024;SDS011;47978;49.118;12.146;2024-02-15T22:23:25;6.00;;;3.55;;
62024;SDS011;47978;49.118;12.146;2024-02-15T22:27:28;6.45;;;4.18;;
62024;SDS011;47978;49.118;12.146;2024-02-15T22:31:29;7.35;;;3.38;;
62024;SDS011;47978;49.118;12.146;2024-02-15T22:35:31;10.30;;;4.15;;
62024;SDS011;47978;49.118;12.146;2024-02-15T22:39:32;6.03;;;3.90;;
62024;SDS011;47978;49.118;12.146;2024-02-15T22:43:35;5.70;;;3.58;;
62024;SDS011;47978;49.118;12.146;2024-02-15T22:47:37;9.10;;;3.22;;
62024;SDS011;47978;49.118;12.146;2024-02-15T22:51:38;8.82;;;3.42;;
62024;SDS011;47978;49.118;12.146;2024-02-15T22:55:40;4.88;;;3.15;;
62024;SDS011;47978;49.118;12.146;2024-02-15T22:59:43;7.65;;;3.15;;
62024;SDS011;47978;49.118;12.146;2024-02-15T23:07:46;4.65;;;2.38;;
62024;SDS011;47978;49.118;12.146;2024-02-15T23:11:47;5.45;;;3.10;;
62024;SDS011;47978;49.118;12.146;2024-02-15T23:15:50;6.75;;;2.67;;
62024;SDS011;47978;49.118;12.146;2024-02-15T23:19:52;8.43;;;3.22;;
62024;SDS011;47978;49.118;12.146;2024-02-15T23:23:54;5.07;;;3.28;;
62024;SDS011;47978;49.118;12.146;2024-02-15T23:27:55;4.93;;;2.90;;
62024;SDS011;47978;49.118;12.146;2024-02-15T23:31:58;6.28;;;2.70;;
62024;SDS011;47978;49.118;12.146;2024-02-15T23:36:00;6.60;;;2.97;;
62024;SDS011;47978;49.118;12.146;2024-02-15T23:40:01;4.72;;;2.58;;
62024;SDS011;47978;49.118;12.146;2024-02-15T23:44:03;8.23;;;2.97;;
62024;SDS011;47978;49.118;12.146;2024-02-15T23:48:07;7.50;;;3.05;;
62024;SDS011;47978;49.118;12.146;2024-02-15T23:52:08;5.07;;;2.70;;
62024;SDS011;47978;49.118;12.146;2024-02-15T23:56:10;4.80;;;2.80;;
